Ermak — UINH — position and weather

sailwx.info

Track history (hours):
 
Tides and Currents Weather Stations Pressure Air Temp Water Temp Dewpoint Dewpoint Depression Visibility Wind Speed Wind Dir Waves Ship Positions

Ermak

Last reported at 2017-Mar-23 17:19 UTC. Time now 2017-Mar-28 17:48 UTC.
Position N 60°02' E 029°09'.

Length 135 m; draft 9.2 m.

Type: Other ship. MMSI: 273142300.

Date/timePositionNaut miles runAvg speedWind from/ knotsBaromVisibWave heightAir tempDewpointWater temp
2017-Mar-23 17:19N 60°02' E 029°09'1114.3
2017-Mar-23 16:33N 60°05' E 028°49'7 6.8
2017-Mar-23 15:33N 60°12' E 028°45'4 4.5
2017-Mar-23 14:33N 60°16' E 028°47'2 1.9
2017-Mar-23 13:30N 60°18' E 028°45'0 0.1
2017-Mar-23 12:13N 60°18' E 028°44'4 2.1
2017-Mar-23 10:30N 60°15' E 028°47'4 0.6
2017-Mar-23 04:21N 60°18' E 028°45'0 0.0
2017-Mar-23 02:23N 60°18' E 028°45'0 0.0
2017-Mar-23 01:32N 60°18' E 028°45'0 0.0
2017-Mar-23 00:13N 60°18' E 028°45'0 0.0
2017-Mar-22 23:24N 60°18' E 028°45'0 0.0
2017-Mar-22 22:18N 60°18' E 028°45'0 0.1
2017-Mar-22 20:12N 60°18' E 028°45'7 8.8
2017-Mar-22 19:21N 60°11' E 028°43'0 0.3
2017-Mar-22 18:32N 60°11' E 028°43'5 5.0
2017-Mar-22 17:27N 60°16' E 028°47'2 2.5
2017-Mar-22 16:33N 60°18' E 028°45'0 0.0
2017-Mar-22 15:32N 60°18' E 028°45'0 0.0
2017-Mar-22 14:32N 60°18' E 028°45'0 0.0
2017-Mar-22 13:33N 60°18' E 028°45'0 0.0
2017-Mar-22 12:32N 60°18' E 028°45'0 0.0
2017-Mar-22 11:33N 60°18' E 028°45'0 0.0
2017-Mar-22 10:33N 60°18' E 028°45'0 0.0
2017-Mar-22 09:33N 60°18' E 028°45'0 0.0
2017-Mar-22 08:33N 60°18' E 028°45'0 0.0
2017-Mar-22 07:33N 60°18' E 028°45'0 0.0
2017-Mar-22 06:33N 60°18' E 028°45'0 0.3
2017-Mar-22 05:30N 60°18' E 028°44'6 4.4
2017-Mar-22 04:05N 60°12' E 028°44'4 8.0
2017-Mar-22 03:33N 60°09' E 028°38'5 4.9
2017-Mar-22 02:33N 60°12' E 028°46'0 0.0
2017-Mar-22 01:33N 60°12' E 028°46'0 0.0
2017-Mar-22 00:33N 60°12' E 028°46'0 0.0
2017-Mar-21 23:33N 60°12' E 028°46'0 0.0
2017-Mar-21 22:33N 60°12' E 028°46'0 0.0
2017-Mar-21 21:33N 60°12' E 028°46'0 0.3
2017-Mar-21 20:33N 60°12' E 028°45'4 4.2
2017-Mar-21 19:33N 60°09' E 028°39'5 5.3
2017-Mar-21 18:33N 60°13' E 028°46'3 3.4
2017-Mar-21 17:33N 60°17' E 028°46'1212.0
2017-Mar-21 16:33N 60°07' E 028°32'7 7.3
2017-Mar-21 15:33N 60°11' E 028°44'0 0.4
2017-Mar-21 14:20N 60°11' E 028°44'2 2.7
2017-Mar-21 13:33N 60°09' E 028°40'10 9.5
2017-Mar-21 12:29N 60°19' E 028°41'0 0.0
2017-Mar-21 11:32N 60°19' E 028°41'0 0.0
2017-Mar-21 10:33N 60°19' E 028°41'0 0.0
2017-Mar-21 09:33N 60°19' E 028°41'0 0.0
2017-Mar-21 08:33N 60°19' E 028°41'0 0.0
2017-Mar-21 07:33N 60°19' E 028°41'0 0.0
2017-Mar-21 06:33N 60°19' E 028°41'0 0.0
2017-Mar-21 05:33N 60°19' E 028°41'0 0.0
2017-Mar-21 04:31N 60°19' E 028°41'0 0.0
2017-Mar-21 03:25N 60°19' E 028°41'0 0.0
2017-Mar-21 02:25N 60°19' E 028°41'0 0.0
2017-Mar-21 01:32N 60°19' E 028°41'0 0.0
2017-Mar-21 00:33N 60°19' E 028°41'0 0.0
2017-Mar-20 23:33N 60°19' E 028°41'0 0.0
2017-Mar-20 22:33N 60°19' E 028°41'0 0.0
2017-Mar-20 21:26N 60°19' E 028°41'0 0.0
2017-Mar-20 19:13N 60°19' E 028°41'0 0.0
2017-Mar-20 18:33N 60°19' E 028°41'0 0.0
2017-Mar-20 17:33N 60°19' E 028°41'0 0.0
2017-Mar-20 16:33N 60°19' E 028°41'0 0.0
2017-Mar-20 15:33N 60°19' E 028°41'0 0.0
2017-Mar-20 14:31N 60°19' E 028°41'0 0.0
2017-Mar-20 13:26N 60°19' E 028°41'0 0.0
2017-Mar-20 12:32N 60°19' E 028°41'0 0.0
2017-Mar-20 11:33N 60°19' E 028°41'0 0.0
2017-Mar-20 10:26N 60°19' E 028°41'0 0.0
2017-Mar-20 09:23N 60°19' E 028°41'0 0.0
2017-Mar-20 08:33N 60°19' E 028°41'0 0.0
2017-Mar-20 07:30N 60°19' E 028°41'10 5.0
2017-Mar-20 05:33N 60°10' E 028°40'2 2.3
2017-Mar-20 04:33N 60°11' E 028°43'5 5.3
2017-Mar-20 03:33N 60°16' E 028°47'2 2.4
2017-Mar-20 02:31N 60°18' E 028°44'0 0.1
2017-Mar-20 01:33N 60°18' E 028°44'7 7.4
2017-Mar-20 00:34N 60°10' E 028°42'1 1.2
2017-Mar-19 23:33N 60°10' E 028°40'8 8.1
2017-Mar-19 22:32N 60°18' E 028°44'2 2.0
2017-Mar-19 21:33N 60°16' E 028°47'0 0.4
2017-Mar-19 20:33N 60°16' E 028°48'0 0.0
2017-Mar-19 19:33N 60°16' E 028°48'0 0.0
2017-Mar-19 18:31N 60°16' E 028°48'0 0.0
2017-Mar-19 17:33N 60°16' E 028°48'0 0.0
2017-Mar-19 16:33N 60°16' E 028°48'6 5.0
2017-Mar-19 15:18N 60°11' E 028°42'912.0
2017-Mar-19 14:34N 60°04' E 028°55'9 6.4
2017-Mar-19 13:06N 60°02' E 029°13'813.7
2017-Mar-19 12:33N 60°02' E 028°58'1413.7
2017-Mar-19 11:33N 60°02' E 028°30'1211.7
2017-Mar-19 10:33N 60°07' E 028°10'9 9.5
2017-Mar-19 09:33N 60°07' E 028°29'1312.8
2017-Mar-19 08:31N 60°16' E 028°47'0 0.1
2017-Mar-19 01:29N 60°16' E 028°48'0 0.0
2017-Mar-18 22:33N 60°16' E 028°48'5 0.4
2017-Mar-18 09:06N 60°12' E 028°44'5 9.5
2017-Mar-18 08:33N 60°08' E 028°36'4 4.2
2017-Mar-18 07:33N 60°11' E 028°43'4 4.5
2017-Mar-18 06:33N 60°15' E 028°47'1 1.4
2017-Mar-18 05:33N 60°16' E 028°47'0 0.3
2017-Mar-18 04:33N 60°16' E 028°47'0 0.0
2017-Mar-18 03:31N 60°16' E 028°47'0 0.0
2017-Mar-18 02:30N 60°16' E 028°47'0 0.0
2017-Mar-18 01:22N 60°16' E 028°47'2 0.9
2017-Mar-17 23:34N 60°18' E 028°45'9 4.3
2017-Mar-17 21:34N 60°10' E 028°38'1515.2
2017-Mar-17 20:34N 60°10' E 028°08'5 1.2
2017-Mar-17 16:09N 60°13' E 027°59'1016.5
2017-Mar-17 15:34N 60°09' E 028°16'14 5.6
2017-Mar-17 13:06N 60°11' E 028°43'7 4.7
2017-Mar-17 11:33N 60°18' E 028°44'5 2.2
2017-Mar-17 09:13N 60°13' E 028°46'0 0.1
2017-Mar-17 08:31N 60°13' E 028°46'1212.6
2017-Mar-17 07:33N 60°06' E 028°25'8 8.1
2017-Mar-17 06:34N 60°09' E 028°11'1414.2
2017-Mar-17 05:33N 60°10' E 028°39'8 7.8
2017-Mar-17 04:33N 60°16' E 028°47'0 0.0
2017-Mar-17 03:33N 60°16' E 028°47'0 0.0
2017-Mar-17 02:33N 60°16' E 028°47'0 0.0
2017-Mar-17 01:33N 60°16' E 028°47'0 0.0
2017-Mar-17 00:33N 60°16' E 028°47'0 0.0
2017-Mar-16 23:33N 60°16' E 028°47'0 0.0
2017-Mar-16 22:32N 60°16' E 028°47'0 0.0
2017-Mar-16 21:32N 60°16' E 028°47'0 0.0
2017-Mar-16 20:33N 60°16' E 028°47'0 0.3
2017-Mar-16 19:33N 60°16' E 028°47'7 7.4
2017-Mar-16 18:33N 60°10' E 028°40'1 1.5
2017-Mar-16 17:33N 60°11' E 028°42'7 6.9
2017-Mar-16 16:34N 60°17' E 028°45'7 6.8
2017-Mar-16 15:33N 60°11' E 028°42'7 7.2
2017-Mar-16 14:33N 60°07' E 028°30'8 7.5
2017-Mar-16 13:32N 60°11' E 028°43'4 3.6
2017-Mar-16 12:27N 60°14' E 028°47'2 2.7
2017-Mar-16 11:33N 60°17' E 028°46'0 0.0
2017-Mar-16 10:33N 60°17' E 028°46'0 0.0
2017-Mar-16 09:33N 60°17' E 028°46'0 0.0
2017-Mar-16 08:33N 60°17' E 028°46'0 0.0
2017-Mar-16 07:33N 60°17' E 028°46'0 0.0
2017-Mar-16 06:33N 60°17' E 028°46'0 0.0
2017-Mar-16 05:33N 60°17' E 028°46'0 0.0
2017-Mar-16 04:34N 60°17' E 028°46'0 0.0
2017-Mar-16 03:33N 60°17' E 028°46'0 0.0
2017-Mar-16 02:33N 60°17' E 028°46'0 0.0
2017-Mar-16 01:33N 60°17' E 028°46'3 2.8
2017-Mar-16 00:33N 60°19' E 028°43'8 7.9
2017-Mar-15 23:29N 60°10' E 028°42'2 1.9
2017-Mar-15 22:33N 60°10' E 028°39'6 4.9
2017-Mar-15 21:17N 60°14' E 028°47'6 6.8
2017-Mar-15 20:28N 60°19' E 028°42'0 0.1
2017-Mar-15 17:25N 60°19' E 028°42'0 0.1
2017-Mar-15 12:33N 60°19' E 028°42'7 6.0
2017-Mar-15 11:20N 60°12' E 028°45'4 5.7
2017-Mar-15 10:33N 60°09' E 028°38'1 1.2
2017-Mar-15 09:33N 60°09' E 028°36'8 6.6
2017-Mar-15 08:21N 60°14' E 028°47'5 6.1
2017-Mar-15 07:28N 60°19' E 028°42'2 0.7
2017-Mar-15 05:07N 60°18' E 028°44'6 5.6
2017-Mar-15 04:04N 60°12' E 028°44'2 2.7
2017-Mar-15 03:28N 60°11' E 028°42'3 3.9
2017-Mar-15 02:34N 60°09' E 028°36'5 5.1
2017-Mar-15 01:33N 60°12' E 028°45'5 3.9
2017-Mar-15 00:18N 60°17' E 028°46'1 0.8
2017-Mar-14 23:22N 60°16' E 028°47'1 0.9
2017-Mar-14 22:29N 60°15' E 028°48'5 5.4
2017-Mar-14 21:30N 60°11' E 028°43'7 6.9
2017-Mar-14 20:33N 60°07' E 028°32'8 8.3
2017-Mar-14 19:33N 60°12' E 028°45'2 1.2
2017-Mar-14 18:03N 60°11' E 028°43'4 8.5
2017-Mar-14 17:33N 60°09' E 028°36'8 8.3
2017-Mar-14 16:33N 60°05' E 028°21'9 8.5
2017-Mar-14 15:33N 60°08' E 028°05'6 6.4
2017-Mar-14 14:33N 60°10' E 027°53'1211.8
2017-Mar-14 13:33N 60°07' E 028°15'1616.3
2017-Mar-14 12:33N 60°11' E 028°47'1 0.9
2017-Mar-14 11:33N 60°11' E 028°48'0 0.1
2017-Mar-14 10:33N 60°11' E 028°48'0 0.2
2017-Mar-14 08:33N 60°11' E 028°47'0 0.2
2017-Mar-14 07:33N 60°11' E 028°47'0 0.2
2017-Mar-14 06:33N 60°11' E 028°47'0 0.2
2017-Mar-14 05:33N 60°11' E 028°46'9 9.3
2017-Mar-14 04:33N 60°07' E 028°30'9 8.2
2017-Mar-14 03:29N 60°12' E 028°44'1 1.1
2017-Mar-14 02:33N 60°12' E 028°46'0 0.2
2017-Mar-14 01:33N 60°12' E 028°46'0 0.1
2017-Mar-14 00:33N 60°12' E 028°46'0 0.1
2017-Mar-13 23:33N 60°12' E 028°46'0 0.1
2017-Mar-13 22:33N 60°12' E 028°45'0 0.1
2017-Mar-13 21:33N 60°12' E 028°45'0 0.1
2017-Mar-13 20:33N 60°12' E 028°45'1 0.5
2017-Mar-13 19:32N 60°12' E 028°45'4 4.2
2017-Mar-13 18:33N 60°09' E 028°39'6 6.2
2017-Mar-13 17:33N 60°06' E 028°28'  
Track history (hours):
 
Tides and Currents Weather Stations Pressure Air Temp Water Temp Dewpoint Dewpoint Depression Visibility Wind Speed Wind Dir Waves Ship Positions

Ermak

Last reported at 2017-Mar-23 17:19 UTC. Time now 2017-Mar-28 17:48 UTC.
Position N 60°02' E 029°09'.

Length 135 m; draft 9.2 m.

Type: Other ship. MMSI: 273142300.

Date/timePositionNaut miles runAvg speedWind from/ knotsBaromVisibWave heightAir tempDewpointWater temp
2017-Mar-23 17:19N 60°02' E 029°09'1114.3
2017-Mar-23 16:33N 60°05' E 028°49'7 6.8
2017-Mar-23 15:33N 60°12' E 028°45'4 4.5
2017-Mar-23 14:33N 60°16' E 028°47'2 1.9
2017-Mar-23 13:30N 60°18' E 028°45'0 0.1
2017-Mar-23 12:13N 60°18' E 028°44'4 2.1
2017-Mar-23 10:30N 60°15' E 028°47'4 0.6
2017-Mar-23 04:21N 60°18' E 028°45'0 0.0
2017-Mar-23 02:23N 60°18' E 028°45'0 0.0
2017-Mar-23 01:32N 60°18' E 028°45'0 0.0
2017-Mar-23 00:13N 60°18' E 028°45'0 0.0
2017-Mar-22 23:24N 60°18' E 028°45'0 0.0
2017-Mar-22 22:18N 60°18' E 028°45'0 0.1
2017-Mar-22 20:12N 60°18' E 028°45'7 8.8
2017-Mar-22 19:21N 60°11' E 028°43'0 0.3
2017-Mar-22 18:32N 60°11' E 028°43'5 5.0
2017-Mar-22 17:27N 60°16' E 028°47'2 2.5
2017-Mar-22 16:33N 60°18' E 028°45'0 0.0
2017-Mar-22 15:32N 60°18' E 028°45'0 0.0
2017-Mar-22 14:32N 60°18' E 028°45'0 0.0
2017-Mar-22 13:33N 60°18' E 028°45'0 0.0
2017-Mar-22 12:32N 60°18' E 028°45'0 0.0
2017-Mar-22 11:33N 60°18' E 028°45'0 0.0
2017-Mar-22 10:33N 60°18' E 028°45'0 0.0
2017-Mar-22 09:33N 60°18' E 028°45'0 0.0
2017-Mar-22 08:33N 60°18' E 028°45'0 0.0
2017-Mar-22 07:33N 60°18' E 028°45'0 0.0
2017-Mar-22 06:33N 60°18' E 028°45'0 0.3
2017-Mar-22 05:30N 60°18' E 028°44'6 4.4
2017-Mar-22 04:05N 60°12' E 028°44'4 8.0
2017-Mar-22 03:33N 60°09' E 028°38'5 4.9
2017-Mar-22 02:33N 60°12' E 028°46'0 0.0
2017-Mar-22 01:33N 60°12' E 028°46'0 0.0
2017-Mar-22 00:33N 60°12' E 028°46'0 0.0
2017-Mar-21 23:33N 60°12' E 028°46'0 0.0
2017-Mar-21 22:33N 60°12' E 028°46'0 0.0
2017-Mar-21 21:33N 60°12' E 028°46'0 0.3
2017-Mar-21 20:33N 60°12' E 028°45'4 4.2
2017-Mar-21 19:33N 60°09' E 028°39'5 5.3
2017-Mar-21 18:33N 60°13' E 028°46'3 3.4
2017-Mar-21 17:33N 60°17' E 028°46'1212.0
2017-Mar-21 16:33N 60°07' E 028°32'7 7.3
2017-Mar-21 15:33N 60°11' E 028°44'0 0.4
2017-Mar-21 14:20N 60°11' E 028°44'2 2.7
2017-Mar-21 13:33N 60°09' E 028°40'10 9.5
2017-Mar-21 12:29N 60°19' E 028°41'0 0.0
2017-Mar-21 11:32N 60°19' E 028°41'0 0.0
2017-Mar-21 10:33N 60°19' E 028°41'0 0.0
2017-Mar-21 09:33N 60°19' E 028°41'0 0.0
2017-Mar-21 08:33N 60°19' E 028°41'0 0.0
2017-Mar-21 07:33N 60°19' E 028°41'0 0.0
2017-Mar-21 06:33N 60°19' E 028°41'0 0.0
2017-Mar-21 05:33N 60°19' E 028°41'0 0.0
2017-Mar-21 04:31N 60°19' E 028°41'0 0.0
2017-Mar-21 03:25N 60°19' E 028°41'0 0.0
2017-Mar-21 02:25N 60°19' E 028°41'0 0.0
2017-Mar-21 01:32N 60°19' E 028°41'0 0.0
2017-Mar-21 00:33N 60°19' E 028°41'0 0.0
2017-Mar-20 23:33N 60°19' E 028°41'0 0.0
2017-Mar-20 22:33N 60°19' E 028°41'0 0.0
2017-Mar-20 21:26N 60°19' E 028°41'0 0.0
2017-Mar-20 19:13N 60°19' E 028°41'0 0.0
2017-Mar-20 18:33N 60°19' E 028°41'0 0.0
2017-Mar-20 17:33N 60°19' E 028°41'0 0.0
2017-Mar-20 16:33N 60°19' E 028°41'0 0.0
2017-Mar-20 15:33N 60°19' E 028°41'0 0.0
2017-Mar-20 14:31N 60°19' E 028°41'0 0.0
2017-Mar-20 13:26N 60°19' E 028°41'0 0.0
2017-Mar-20 12:32N 60°19' E 028°41'0 0.0
2017-Mar-20 11:33N 60°19' E 028°41'0 0.0
2017-Mar-20 10:26N 60°19' E 028°41'0 0.0
2017-Mar-20 09:23N 60°19' E 028°41'0 0.0
2017-Mar-20 08:33N 60°19' E 028°41'0 0.0
2017-Mar-20 07:30N 60°19' E 028°41'10 5.0
2017-Mar-20 05:33N 60°10' E 028°40'2 2.3
2017-Mar-20 04:33N 60°11' E 028°43'5 5.3
2017-Mar-20 03:33N 60°16' E 028°47'2 2.4
2017-Mar-20 02:31N 60°18' E 028°44'0 0.1
2017-Mar-20 01:33N 60°18' E 028°44'7 7.4
2017-Mar-20 00:34N 60°10' E 028°42'1 1.2
2017-Mar-19 23:33N 60°10' E 028°40'8 8.1
2017-Mar-19 22:32N 60°18' E 028°44'2 2.0
2017-Mar-19 21:33N 60°16' E 028°47'0 0.4
2017-Mar-19 20:33N 60°16' E 028°48'0 0.0
2017-Mar-19 19:33N 60°16' E 028°48'0 0.0
2017-Mar-19 18:31N 60°16' E 028°48'0 0.0
2017-Mar-19 17:33N 60°16' E 028°48'0 0.0
2017-Mar-19 16:33N 60°16' E 028°48'6 5.0
2017-Mar-19 15:18N 60°11' E 028°42'912.0
2017-Mar-19 14:34N 60°04' E 028°55'9 6.4
2017-Mar-19 13:06N 60°02' E 029°13'813.7
2017-Mar-19 12:33N 60°02' E 028°58'1413.7
2017-Mar-19 11:33N 60°02' E 028°30'1211.7
2017-Mar-19 10:33N 60°07' E 028°10'9 9.5
2017-Mar-19 09:33N 60°07' E 028°29'1312.8
2017-Mar-19 08:31N 60°16' E 028°47'0 0.1
2017-Mar-19 01:29N 60°16' E 028°48'0 0.0
2017-Mar-18 22:33N 60°16' E 028°48'5 0.4
2017-Mar-18 09:06N 60°12' E 028°44'5 9.5
2017-Mar-18 08:33N 60°08' E 028°36'4 4.2
2017-Mar-18 07:33N 60°11' E 028°43'4 4.5
2017-Mar-18 06:33N 60°15' E 028°47'1 1.4
2017-Mar-18 05:33N 60°16' E 028°47'0 0.3
2017-Mar-18 04:33N 60°16' E 028°47'0 0.0
2017-Mar-18 03:31N 60°16' E 028°47'0 0.0
2017-Mar-18 02:30N 60°16' E 028°47'0 0.0
2017-Mar-18 01:22N 60°16' E 028°47'2 0.9
2017-Mar-17 23:34N 60°18' E 028°45'9 4.3
2017-Mar-17 21:34N 60°10' E 028°38'1515.2
2017-Mar-17 20:34N 60°10' E 028°08'5 1.2
2017-Mar-17 16:09N 60°13' E 027°59'1016.5
2017-Mar-17 15:34N 60°09' E 028°16'14 5.6
2017-Mar-17 13:06N 60°11' E 028°43'7 4.7
2017-Mar-17 11:33N 60°18' E 028°44'5 2.2
2017-Mar-17 09:13N 60°13' E 028°46'0 0.1
2017-Mar-17 08:31N 60°13' E 028°46'1212.6
2017-Mar-17 07:33N 60°06' E 028°25'8 8.1
2017-Mar-17 06:34N 60°09' E 028°11'1414.2
2017-Mar-17 05:33N 60°10' E 028°39'8 7.8
2017-Mar-17 04:33N 60°16' E 028°47'0 0.0
2017-Mar-17 03:33N 60°16' E 028°47'0 0.0
2017-Mar-17 02:33N 60°16' E 028°47'0 0.0
2017-Mar-17 01:33N 60°16' E 028°47'0 0.0
2017-Mar-17 00:33N 60°16' E 028°47'0 0.0
2017-Mar-16 23:33N 60°16' E 028°47'0 0.0
2017-Mar-16 22:32N 60°16' E 028°47'0 0.0
2017-Mar-16 21:32N 60°16' E 028°47'0 0.0
2017-Mar-16 20:33N 60°16' E 028°47'0 0.3
2017-Mar-16 19:33N 60°16' E 028°47'7 7.4
2017-Mar-16 18:33N 60°10' E 028°40'1 1.5
2017-Mar-16 17:33N 60°11' E 028°42'7 6.9
2017-Mar-16 16:34N 60°17' E 028°45'7 6.8
2017-Mar-16 15:33N 60°11' E 028°42'7 7.2
2017-Mar-16 14:33N 60°07' E 028°30'8 7.5
2017-Mar-16 13:32N 60°11' E 028°43'4 3.6
2017-Mar-16 12:27N 60°14' E 028°47'2 2.7
2017-Mar-16 11:33N 60°17' E 028°46'0 0.0
2017-Mar-16 10:33N 60°17' E 028°46'0 0.0
2017-Mar-16 09:33N 60°17' E 028°46'0 0.0
2017-Mar-16 08:33N 60°17' E 028°46'0 0.0
2017-Mar-16 07:33N 60°17' E 028°46'0 0.0
2017-Mar-16 06:33N 60°17' E 028°46'0 0.0
2017-Mar-16 05:33N 60°17' E 028°46'0 0.0
2017-Mar-16 04:34N 60°17' E 028°46'0 0.0
2017-Mar-16 03:33N 60°17' E 028°46'0 0.0
2017-Mar-16 02:33N 60°17' E 028°46'0 0.0
2017-Mar-16 01:33N 60°17' E 028°46'3 2.8
2017-Mar-16 00:33N 60°19' E 028°43'8 7.9
2017-Mar-15 23:29N 60°10' E 028°42'2 1.9
2017-Mar-15 22:33N 60°10' E 028°39'6 4.9
2017-Mar-15 21:17N 60°14' E 028°47'6 6.8
2017-Mar-15 20:28N 60°19' E 028°42'0 0.1
2017-Mar-15 17:25N 60°19' E 028°42'0 0.1
2017-Mar-15 12:33N 60°19' E 028°42'7 6.0
2017-Mar-15 11:20N 60°12' E 028°45'4 5.7
2017-Mar-15 10:33N 60°09' E 028°38'1 1.2
2017-Mar-15 09:33N 60°09' E 028°36'8 6.6
2017-Mar-15 08:21N 60°14' E 028°47'5 6.1
2017-Mar-15 07:28N 60°19' E 028°42'2 0.7
2017-Mar-15 05:07N 60°18' E 028°44'6 5.6
2017-Mar-15 04:04N 60°12' E 028°44'2 2.7
2017-Mar-15 03:28N 60°11' E 028°42'3 3.9
2017-Mar-15 02:34N 60°09' E 028°36'5 5.1
2017-Mar-15 01:33N 60°12' E 028°45'5 3.9
2017-Mar-15 00:18N 60°17' E 028°46'1 0.8
2017-Mar-14 23:22N 60°16' E 028°47'1 0.9
2017-Mar-14 22:29N 60°15' E 028°48'5 5.4
2017-Mar-14 21:30N 60°11' E 028°43'7 6.9
2017-Mar-14 20:33N 60°07' E 028°32'8 8.3
2017-Mar-14 19:33N 60°12' E 028°45'2 1.2
2017-Mar-14 18:03N 60°11' E 028°43'4 8.5
2017-Mar-14 17:33N 60°09' E 028°36'8 8.3
2017-Mar-14 16:33N 60°05' E 028°21'9 8.5
2017-Mar-14 15:33N 60°08' E 028°05'6 6.4
2017-Mar-14 14:33N 60°10' E 027°53'1211.8
2017-Mar-14 13:33N 60°07' E 028°15'1616.3
2017-Mar-14 12:33N 60°11' E 028°47'1 0.9
2017-Mar-14 11:33N 60°11' E 028°48'0 0.1
2017-Mar-14 10:33N 60°11' E 028°48'0 0.2
2017-Mar-14 08:33N 60°11' E 028°47'0 0.2
2017-Mar-14 07:33N 60°11' E 028°47'0 0.2
2017-Mar-14 06:33N 60°11' E 028°47'0 0.2
2017-Mar-14 05:33N 60°11' E 028°46'9 9.3
2017-Mar-14 04:33N 60°07' E 028°30'9 8.2
2017-Mar-14 03:29N 60°12' E 028°44'1 1.1
2017-Mar-14 02:33N 60°12' E 028°46'0 0.2
2017-Mar-14 01:33N 60°12' E 028°46'0 0.1
2017-Mar-14 00:33N 60°12' E 028°46'0 0.1
2017-Mar-13 23:33N 60°12' E 028°46'0 0.1
2017-Mar-13 22:33N 60°12' E 028°45'0 0.1
2017-Mar-13 21:33N 60°12' E 028°45'0 0.1
2017-Mar-13 20:33N 60°12' E 028°45'1 0.5
2017-Mar-13 19:32N 60°12' E 028°45'4 4.2
2017-Mar-13 18:33N 60°09' E 028°39'6 6.2
2017-Mar-13 17:33N 60°06' E 028°28'  

Dump ship's entire track history